Terminal Aerodrome Forecast
Issued by NWS

Current Version | Previous Version | Text Only | Print | Product List | Glossary On
Versions: 1 2 3 4 5 6 7 8 9 10 11 12 13 14
897
FTUS41 KCAR 222320
TAFPQI
TAF
KPQI 222320Z 2300/2324 36004KT P6SM BKN150
     FM230400 07005KT 2SM -SN OVC030
     FM230600 09008KT 3/4SM -SN BR OVC012
     FM231200 11010KT 1/2SM SN OVC003
     FM231700 13012KT 1SM -FZRASNPL OVC003
     FM232000 10012KT 3SM -RA BR OVC003=

USA.gov is the U.S. government's official web portal to all federal, state and local government web resources and services.